Terminal Aerodrome Forecast
Issued by NWS Grand Rapids, MI

Home | Current Version | Previous Version | Text Only | Print | Product List | Glossary On
Versions: 1 2 3 4 5 6 7 8 9 10 11 12 13 14 15 16 17
000
FTUS43 KGRR 251728
TAFGRR
TAF
KGRR 251728Z 2518/2618 21015G26KT 6SM -SHRA SCT025 BKN040
     FM252100 23012G25KT P6SM BKN040
     FM260000 21010KT P6SM SCT040
     FM260900 20010KT P6SM OVC015=

USA.gov is the U.S. government's official web portal to all federal, state and local government web resources and services.